createdAt,value
2019-02-14T00:00:11.007Z,19.31
2019-02-14T00:01:08.511Z,19.31
2019-02-14T00:02:05.115Z,19.31
2019-02-14T00:03:01.717Z,19.31
2019-02-14T00:03:58.300Z,19.31
2019-02-14T00:04:54.898Z,19.25
2019-02-14T00:05:51.549Z,19.25
2019-02-14T00:06:48.140Z,19.25
2019-02-14T00:07:44.867Z,19.25
2019-02-14T00:08:41.574Z,19.25
2019-02-14T00:09:38.257Z,19.25
2019-02-14T00:10:34.859Z,19.25
2019-02-14T00:11:31.493Z,19.25
2019-02-14T00:12:28.438Z,19.25
2019-02-14T00:13:25.029Z,19.25
2019-02-14T00:14:21.625Z,19.25
2019-02-14T00:15:18.236Z,19.25
2019-02-14T00:16:14.953Z,19.19
2019-02-14T00:17:11.637Z,19.19
2019-02-14T00:18:08.236Z,19.25
2019-02-14T00:19:04.850Z,19.19
2019-02-14T00:20:01.475Z,19.19
2019-02-14T00:20:58.188Z,19.19
2019-02-14T00:21:54.795Z,19.19
2019-02-14T00:22:51.421Z,19.19
2019-02-14T00:23:48.233Z,19.19
2019-02-14T00:24:44.812Z,19.19
2019-02-14T00:25:41.442Z,19.19
2019-02-14T00:26:38.042Z,19.19
2019-02-14T00:27:34.666Z,19.19
2019-02-14T00:28:31.445Z,19.19
2019-02-14T00:29:28.062Z,19.19
2019-02-14T00:30:24.729Z,19.19
2019-02-14T00:31:21.321Z,19.19
2019-02-14T00:32:17.933Z,19.19
2019-02-14T00:33:14.537Z,19.12
2019-02-14T00:34:11.146Z,19.12
2019-02-14T00:35:11.448Z,19.12
2019-02-14T00:36:08.057Z,19.12
2019-02-14T00:37:04.666Z,19.12
2019-02-14T00:38:01.288Z,19.12
2019-02-14T00:38:58.090Z,19.12
2019-02-14T00:39:54.793Z,19.12
2019-02-14T00:40:52.165Z,19.12
2019-02-14T00:41:48.862Z,19.12
2019-02-14T00:42:45.466Z,19.12
2019-02-14T00:43:42.053Z,19.12
2019-02-14T00:44:38.652Z,19.12
2019-02-14T00:45:35.293Z,19.12
2019-02-14T00:46:32.033Z,19.12
2019-02-14T00:47:28.738Z,19.12
2019-02-14T00:48:25.361Z,19.12
2019-02-14T00:49:21.973Z,19.06
2019-02-14T00:50:18.557Z,19.06
2019-02-14T00:51:15.166Z,19.06
2019-02-14T00:52:12.385Z,19.06
2019-02-14T00:53:09.014Z,19.06
2019-02-14T00:54:05.609Z,19.06
2019-02-14T00:55:02.246Z,19.06
2019-02-14T00:55:58.926Z,19.06
2019-02-14T00:56:55.522Z,19.06
2019-02-14T00:57:52.446Z,19.06
2019-02-14T00:58:49.597Z,19.06
2019-02-14T00:59:46.178Z,19.06
2019-02-14T01:00:42.766Z,19.06
2019-02-14T01:01:39.366Z,19.06
2019-02-14T01:02:36.325Z,19.00
2019-02-14T01:03:32.917Z,19.06
2019-02-14T01:04:29.767Z,19.06
2019-02-14T01:05:33.293Z,19.00
2019-02-14T01:06:24.945Z,19.00
2019-02-14T01:07:21.528Z,19.00
2019-02-14T01:08:18.149Z,19.00
2019-02-14T01:09:14.771Z,19.00
2019-02-14T01:10:11.373Z,19.00
2019-02-14T01:11:08.002Z,19.00
2019-02-14T01:12:04.689Z,19.00
2019-02-14T01:13:01.393Z,19.00
2019-02-14T01:13:58.018Z,19.00
2019-02-14T01:14:54.602Z,19.00
2019-02-14T01:15:51.529Z,19.00
2019-02-14T01:16:48.117Z,19.00
2019-02-14T01:17:44.721Z,19.00
2019-02-14T01:18:41.342Z,19.00
2019-02-14T01:19:37.962Z,19.00
2019-02-14T01:20:34.548Z,18.94
2019-02-14T01:21:31.142Z,18.94
2019-02-14T01:22:27.750Z,18.94
2019-02-14T01:23:24.708Z,18.94
2019-02-14T01:24:21.346Z,18.94
2019-02-14T01:25:18.181Z,18.94
2019-02-14T01:26:14.873Z,18.94
2019-02-14T01:27:11.477Z,18.94
2019-02-14T01:28:08.081Z,18.94
2019-02-14T01:29:04.769Z,18.94
2019-02-14T01:30:01.388Z,18.94
2019-02-14T01:30:58.113Z,18.94
2019-02-14T01:31:54.793Z,18.94
2019-02-14T01:32:51.378Z,18.94
2019-02-14T01:33:47.977Z,18.94
2019-02-14T01:34:44.593Z,18.94
2019-02-14T01:35:42.175Z,18.94
2019-02-14T01:36:38.930Z,18.87
2019-02-14T01:37:35.621Z,18.87
2019-02-14T01:38:32.218Z,18.87
2019-02-14T01:39:28.817Z,18.87
2019-02-14T01:40:25.440Z,18.87
2019-02-14T01:41:22.340Z,18.87
2019-02-14T01:42:18.957Z,18.87
2019-02-14T01:43:15.577Z,18.87
2019-02-14T01:44:12.246Z,18.87
2019-02-14T01:45:08.886Z,18.87
2019-02-14T01:46:05.605Z,18.87
2019-02-14T01:47:02.183Z,18.87
2019-02-14T01:47:58.773Z,18.87
2019-02-14T01:48:55.475Z,18.87
2019-02-14T01:49:52.595Z,18.87
2019-02-14T01:50:49.238Z,18.87
2019-02-14T01:51:45.947Z,18.87
2019-02-14T01:52:42.541Z,18.87
2019-02-14T01:53:39.220Z,18.81
2019-02-14T01:54:35.843Z,18.81
2019-02-14T01:55:33.121Z,18.87
2019-02-14T01:56:29.787Z,18.81
2019-02-14T01:57:26.453Z,18.81
2019-02-14T01:58:23.050Z,18.81
2019-02-14T01:59:19.644Z,18.81
2019-02-14T02:00:16.907Z,18.81
2019-02-14T02:01:13.630Z,18.81
2019-02-14T02:02:10.230Z,18.81
2019-02-14T02:03:06.834Z,18.81
2019-02-14T02:04:03.426Z,18.81
2019-02-14T02:05:00.026Z,18.81
2019-02-14T02:05:56.629Z,18.81
2019-02-14T02:06:53.222Z,18.81
2019-02-14T02:07:49.803Z,18.81
2019-02-14T02:08:46.685Z,18.81
2019-02-14T02:09:43.258Z,18.81
2019-02-14T02:10:39.888Z,18.81
2019-02-14T02:11:36.518Z,18.81
2019-02-14T02:12:33.141Z,18.81
2019-02-14T02:13:29.950Z,18.75
2019-02-14T02:14:26.627Z,18.75
2019-02-14T02:15:23.201Z,18.75
2019-02-14T02:16:19.876Z,18.75
2019-02-14T02:17:16.446Z,18.75
2019-02-14T02:18:13.028Z,18.75
2019-02-14T02:19:09.630Z,18.75
2019-02-14T02:20:06.441Z,18.75
2019-02-14T02:21:03.062Z,18.75
2019-02-14T02:21:59.681Z,18.75
2019-02-14T02:22:56.365Z,18.75
2019-02-14T02:23:53.041Z,18.75
2019-02-14T02:24:49.705Z,18.75
2019-02-14T02:25:46.297Z,18.75
2019-02-14T02:26:42.900Z,18.75
2019-02-14T02:27:39.481Z,18.75
2019-02-14T02:28:36.085Z,18.75
2019-02-14T02:29:32.696Z,18.75
2019-02-14T02:30:29.412Z,18.75
2019-02-14T02:31:26.117Z,18.69
2019-02-14T02:32:22.810Z,18.75
2019-02-14T02:33:19.409Z,18.69
2019-02-14T02:34:15.991Z,18.69
2019-02-14T02:35:12.591Z,18.69
2019-02-14T02:36:09.180Z,18.69
2019-02-14T02:37:05.772Z,18.69
2019-02-14T02:38:02.369Z,18.69
2019-02-14T02:38:58.994Z,18.69
2019-02-14T02:39:55.841Z,18.69
2019-02-14T02:40:52.424Z,18.69
2019-02-14T02:41:49.013Z,18.69
2019-02-14T02:42:45.624Z,18.69
2019-02-14T02:43:42.210Z,18.69
2019-02-14T02:44:38.790Z,18.69
2019-02-14T02:45:35.383Z,18.69
2019-02-14T02:46:31.974Z,18.69
2019-02-14T02:47:28.870Z,18.69
2019-02-14T02:48:25.450Z,18.69
2019-02-14T02:49:22.042Z,18.69
2019-02-14T02:50:18.629Z,18.62
2019-02-14T02:51:15.229Z,18.69
2019-02-14T02:52:11.826Z,18.62
2019-02-14T02:53:08.712Z,18.62
2019-02-14T02:54:05.308Z,18.62
2019-02-14T02:55:01.892Z,18.62
2019-02-14T02:55:58.626Z,18.62
2019-02-14T02:56:55.230Z,18.62
2019-02-14T02:57:51.940Z,18.62
2019-02-14T02:58:48.730Z,18.62
2019-02-14T02:59:45.327Z,18.62
2019-02-14T03:00:41.931Z,18.62
2019-02-14T03:01:38.525Z,18.62
2019-02-14T03:02:35.109Z,18.62
2019-02-14T03:03:32.019Z,18.62
2019-02-14T03:04:28.678Z,18.62
2019-02-14T03:05:25.285Z,18.62
2019-02-14T03:06:21.911Z,18.62
2019-02-14T03:07:18.726Z,18.62
2019-02-14T03:08:15.418Z,18.62
2019-02-14T03:09:12.009Z,18.62
2019-02-14T03:10:08.627Z,18.62
2019-02-14T03:11:05.211Z,18.62
2019-02-14T03:12:02.144Z,18.62
2019-02-14T03:12:58.917Z,18.56
2019-02-14T03:13:55.614Z,18.56
2019-02-14T03:14:52.201Z,18.56
2019-02-14T03:15:48.846Z,18.56
2019-02-14T03:16:45.448Z,18.56
2019-02-14T03:17:42.130Z,18.56
2019-02-14T03:18:38.752Z,18.56
2019-02-14T03:19:35.341Z,18.56
2019-02-14T03:20:32.081Z,18.56
2019-02-14T03:21:28.708Z,18.56
2019-02-14T03:22:25.289Z,18.56
2019-02-14T03:23:22.289Z,18.56
2019-02-14T03:24:18.994Z,18.56
2019-02-14T03:25:15.585Z,18.56
2019-02-14T03:26:12.182Z,18.56
2019-02-14T03:27:08.764Z,18.56
2019-02-14T03:28:05.359Z,18.56
2019-02-14T03:29:01.997Z,18.56
2019-02-14T03:29:58.837Z,18.56
2019-02-14T03:30:55.527Z,18.56
2019-02-14T03:31:52.119Z,18.56
2019-02-14T03:32:49.069Z,18.50
2019-02-14T03:33:45.685Z,18.50
2019-02-14T03:34:42.273Z,18.56
2019-02-14T03:35:38.865Z,18.50
2019-02-14T03:36:35.455Z,18.50
2019-02-14T03:37:32.309Z,18.50
2019-02-14T03:38:28.914Z,18.50
2019-02-14T03:39:25.521Z,18.50
2019-02-14T03:40:22.119Z,18.50
2019-02-14T03:41:18.697Z,18.50
2019-02-14T03:42:15.294Z,18.50
2019-02-14T03:43:11.899Z,18.50
2019-02-14T03:44:08.530Z,18.50
2019-02-14T03:45:05.737Z,18.50
2019-02-14T03:46:02.386Z,18.50
2019-02-14T03:46:59.073Z,18.50
2019-02-14T03:47:55.658Z,18.50
2019-02-14T03:48:52.290Z,18.50
2019-02-14T03:49:48.882Z,18.50
2019-02-14T03:50:45.460Z,18.50
2019-02-14T03:51:42.063Z,18.50
2019-02-14T03:52:39.187Z,18.50
2019-02-14T03:53:35.777Z,18.44
2019-02-14T03:54:32.484Z,18.50
2019-02-14T03:55:29.084Z,18.44
2019-02-14T03:56:25.673Z,18.44
2019-02-14T03:57:22.280Z,18.44
2019-02-14T03:58:18.898Z,18.44
2019-02-14T03:59:15.497Z,18.44
2019-02-14T04:00:12.221Z,18.44
2019-02-14T04:01:09.008Z,18.44
2019-02-14T04:02:05.678Z,18.44
2019-02-14T04:03:02.540Z,18.44
2019-02-14T04:03:59.385Z,18.44
2019-02-14T04:04:56.069Z,18.44
2019-02-14T04:05:52.690Z,18.44
2019-02-14T04:06:49.399Z,18.44
2019-02-14T04:07:45.986Z,18.44
2019-02-14T04:08:42.573Z,18.44
2019-02-14T04:09:39.172Z,18.44
2019-02-14T04:10:35.783Z,18.44
2019-02-14T04:11:32.624Z,18.44
2019-02-14T04:12:29.322Z,18.44
2019-02-14T04:13:26.009Z,18.44
2019-02-14T04:14:22.871Z,18.44
2019-02-14T04:15:19.525Z,18.44
2019-02-14T04:16:16.121Z,18.44
2019-02-14T04:17:12.725Z,18.44
2019-02-14T04:18:09.314Z,18.44
2019-02-14T04:19:05.911Z,18.37
2019-02-14T04:20:02.545Z,18.37
2019-02-14T04:20:59.393Z,18.37
2019-02-14T04:21:55.988Z,18.37
2019-02-14T04:22:52.582Z,18.37
2019-02-14T04:23:49.162Z,18.37
2019-02-14T04:24:45.780Z,18.37
2019-02-14T04:25:42.382Z,18.37
2019-02-14T04:26:39.007Z,18.37
2019-02-14T04:27:35.832Z,18.37
2019-02-14T04:28:32.421Z,18.37
2019-02-14T04:29:29.005Z,18.37
2019-02-14T04:30:25.582Z,18.37
2019-02-14T04:31:22.178Z,18.37
2019-02-14T04:32:18.766Z,18.37
2019-02-14T04:33:15.369Z,18.37
2019-02-14T04:34:11.968Z,18.37
2019-02-14T04:35:11.594Z,18.37
2019-02-14T04:36:08.229Z,18.37
2019-02-14T04:37:04.874Z,18.37
2019-02-14T04:38:01.458Z,18.37
2019-02-14T04:38:58.073Z,18.37
2019-02-14T04:39:54.669Z,18.37
2019-02-14T04:40:51.261Z,18.37
2019-02-14T04:41:47.853Z,18.31
2019-02-14T04:42:44.448Z,18.37
2019-02-14T04:43:41.033Z,18.31
2019-02-14T04:44:37.968Z,18.37
2019-02-14T04:45:34.552Z,18.31
2019-02-14T04:46:31.165Z,18.31
2019-02-14T04:47:27.765Z,18.31
2019-02-14T04:48:24.362Z,18.31
2019-02-14T04:49:21.206Z,18.31
2019-02-14T04:50:17.813Z,18.25
2019-02-14T04:51:14.433Z,17.31
2019-02-14T04:52:11.042Z,16.62
2019-02-14T04:53:07.635Z,16.44
2019-02-14T04:54:04.218Z,16.19
2019-02-14T04:55:00.816Z,16.12
2019-02-14T04:55:57.398Z,16.37
2019-02-14T04:56:54.022Z,16.87
2019-02-14T04:57:50.597Z,17.37
2019-02-14T04:58:47.466Z,17.87
2019-02-14T04:59:44.141Z,18.87
2019-02-14T05:00:42.835Z,20.44
2019-02-14T05:01:39.558Z,22.75
2019-02-14T05:02:36.197Z,25.06
2019-02-14T05:03:32.882Z,27.19
2019-02-14T05:04:29.486Z,28.87
2019-02-14T05:05:26.065Z,30.12
2019-02-14T05:06:22.663Z,30.94
2019-02-14T05:07:19.377Z,31.56
2019-02-14T05:08:16.021Z,32.00
2019-02-14T05:09:12.605Z,32.31
2019-02-14T05:10:09.212Z,32.63
2019-02-14T05:11:05.917Z,32.81
2019-02-14T05:12:02.744Z,33.06
2019-02-14T05:12:59.425Z,33.25
2019-02-14T05:13:56.018Z,33.44
2019-02-14T05:14:52.605Z,33.69
2019-02-14T05:15:49.214Z,33.88
2019-02-14T05:16:45.813Z,34.13
2019-02-14T05:17:42.422Z,34.38
2019-02-14T05:18:39.311Z,34.56
2019-02-14T05:19:35.928Z,34.75
2019-02-14T05:20:32.531Z,35.00
2019-02-14T05:21:29.401Z,35.19
2019-02-14T05:22:25.982Z,35.38
2019-02-14T05:23:22.565Z,35.50
2019-02-14T05:24:19.237Z,35.69
2019-02-14T05:25:15.844Z,35.81
2019-02-14T05:26:12.454Z,36.00
2019-02-14T05:27:09.037Z,36.13
2019-02-14T05:28:05.990Z,36.25
2019-02-14T05:29:02.666Z,36.38
2019-02-14T05:29:59.556Z,36.50
2019-02-14T05:30:56.165Z,36.63
2019-02-14T05:31:52.749Z,36.75
2019-02-14T05:32:49.334Z,36.88
2019-02-14T05:33:45.949Z,37.00
2019-02-14T05:34:42.533Z,36.94
2019-02-14T05:35:39.421Z,36.56
2019-02-14T05:36:36.122Z,36.13
2019-02-14T05:37:32.997Z,35.81
2019-02-14T05:38:29.612Z,35.63
2019-02-14T05:39:26.237Z,35.50
2019-02-14T05:40:22.961Z,35.44
2019-02-14T05:41:20.129Z,35.31
2019-02-14T05:42:16.754Z,35.25
2019-02-14T05:43:13.421Z,35.19
2019-02-14T05:44:10.014Z,35.13
2019-02-14T05:45:06.622Z,35.06
2019-02-14T05:46:03.293Z,35.00
2019-02-14T05:46:59.881Z,34.94
2019-02-14T05:47:56.464Z,34.88
2019-02-14T05:48:53.113Z,34.81
2019-02-14T05:49:49.967Z,34.81
2019-02-14T05:50:46.549Z,34.75
2019-02-14T05:51:43.150Z,34.69
2019-02-14T05:52:39.750Z,34.63
2019-02-14T05:53:36.350Z,34.63
2019-02-14T05:54:33.234Z,34.56
2019-02-14T05:55:29.917Z,34.56
2019-02-14T05:56:26.505Z,34.56
2019-02-14T05:57:23.164Z,34.50
2019-02-14T05:58:20.013Z,34.44
2019-02-14T05:59:16.593Z,34.44
2019-02-14T06:00:13.629Z,34.38
2019-02-14T06:01:12.064Z,34.31
2019-02-14T06:02:08.759Z,34.31
2019-02-14T06:03:05.329Z,34.25
2019-02-14T06:04:01.961Z,34.19
2019-02-14T06:04:58.556Z,34.13
2019-02-14T06:05:55.157Z,34.13
2019-02-14T06:06:52.332Z,34.06
2019-02-14T06:07:48.958Z,34.00
2019-02-14T06:08:45.636Z,33.94
2019-02-14T06:09:42.264Z,33.88
2019-02-14T06:10:38.872Z,34.75
2019-02-14T06:11:35.444Z,33.69
2019-02-14T06:12:32.038Z,31.81
2019-02-14T06:13:28.649Z,33.06
2019-02-14T06:14:25.277Z,36.38
2019-02-14T06:15:22.186Z,38.25
2019-02-14T06:16:18.777Z,37.56
2019-02-14T06:17:15.365Z,36.19
2019-02-14T06:18:11.966Z,35.50
2019-02-14T06:19:08.677Z,35.44
2019-02-14T06:20:05.490Z,36.06
2019-02-14T06:21:02.091Z,36.75
2019-02-14T06:21:58.780Z,37.19
2019-02-14T06:22:55.396Z,37.19
2019-02-14T06:23:52.237Z,36.38
2019-02-14T06:24:48.857Z,34.31
2019-02-14T06:25:45.458Z,32.25
2019-02-14T06:26:42.060Z,31.50
2019-02-14T06:27:38.676Z,32.06
2019-02-14T06:28:37.281Z,33.13
2019-02-14T06:29:34.091Z,34.19
2019-02-14T06:30:30.684Z,35.13
2019-02-14T06:31:27.262Z,35.75
2019-02-14T06:32:23.865Z,36.31
2019-02-14T06:33:20.442Z,36.69
2019-02-14T06:34:17.029Z,37.06
2019-02-14T06:35:13.651Z,37.31
2019-02-14T06:36:10.478Z,37.63
2019-02-14T06:37:09.679Z,37.81
2019-02-14T06:38:06.006Z,38.00
2019-02-14T06:39:04.177Z,38.13
2019-02-14T06:40:00.844Z,38.25
2019-02-14T06:40:57.730Z,38.31
2019-02-14T06:41:54.334Z,38.44
2019-02-14T06:42:50.899Z,38.56
2019-02-14T06:43:47.513Z,38.63
2019-02-14T06:44:44.147Z,38.75
2019-02-14T06:45:40.841Z,38.88
2019-02-14T06:46:37.421Z,38.94
2019-02-14T06:47:34.251Z,39.06
2019-02-14T06:48:30.873Z,39.13
2019-02-14T06:49:27.467Z,39.25
2019-02-14T06:50:24.086Z,39.31
2019-02-14T06:51:20.693Z,39.38
2019-02-14T06:52:17.500Z,39.50
2019-02-14T06:53:14.176Z,39.56
2019-02-14T06:54:10.841Z,39.75
2019-02-14T06:55:07.429Z,39.94
2019-02-14T06:56:04.559Z,40.00
2019-02-14T06:57:01.241Z,40.12
2019-02-14T06:57:57.889Z,40.25
2019-02-14T06:58:54.562Z,40.38
2019-02-14T06:59:51.170Z,40.44
2019-02-14T07:00:48.069Z,40.56
2019-02-14T07:01:44.711Z,40.69
2019-02-14T07:02:41.333Z,40.81
2019-02-14T07:03:37.929Z,40.94
2019-02-14T07:04:34.513Z,41.00
2019-02-14T07:05:31.105Z,40.88
2019-02-14T07:06:27.914Z,40.63
2019-02-14T07:07:24.525Z,40.44
2019-02-14T07:08:21.141Z,40.25
2019-02-14T07:09:17.729Z,40.19
2019-02-14T07:10:14.332Z,40.06
2019-02-14T07:11:10.965Z,40.00
2019-02-14T07:12:07.590Z,39.94
2019-02-14T07:13:04.557Z,39.88
2019-02-14T07:14:01.216Z,39.81
2019-02-14T07:14:58.028Z,39.75
2019-02-14T07:15:54.697Z,39.69
2019-02-14T07:16:51.322Z,39.69
2019-02-14T07:17:47.917Z,39.63
2019-02-14T07:18:44.516Z,39.63
2019-02-14T07:19:41.116Z,39.50
2019-02-14T07:20:37.714Z,39.25
2019-02-14T07:21:34.539Z,38.75
2019-02-14T07:22:31.120Z,37.75
2019-02-14T07:23:27.737Z,36.38
2019-02-14T07:24:24.338Z,34.88
2019-02-14T07:25:20.925Z,33.75
2019-02-14T07:26:17.517Z,33.50
2019-02-14T07:27:14.389Z,34.31
2019-02-14T07:28:11.079Z,35.69
2019-02-14T07:29:07.660Z,37.00
2019-02-14T07:30:04.257Z,38.13
2019-02-14T07:31:00.871Z,39.00
2019-02-14T07:31:57.454Z,39.69
2019-02-14T07:32:54.342Z,40.25
2019-02-14T07:33:50.938Z,40.63
2019-02-14T07:34:47.518Z,40.94
2019-02-14T07:35:44.101Z,41.13
2019-02-14T07:36:40.690Z,41.00
2019-02-14T07:37:37.318Z,40.75
2019-02-14T07:38:34.182Z,40.56
2019-02-14T07:39:30.792Z,40.38
2019-02-14T07:40:27.385Z,40.19
2019-02-14T07:41:23.977Z,40.06
2019-02-14T07:42:20.586Z,39.94
2019-02-14T07:43:17.194Z,39.88
2019-02-14T07:44:13.851Z,39.75
2019-02-14T07:45:11.198Z,39.69
2019-02-14T07:46:07.791Z,39.63
2019-02-14T07:47:04.386Z,39.56
2019-02-14T07:48:01.066Z,39.56
2019-02-14T07:48:57.662Z,39.38
2019-02-14T07:49:54.492Z,39.00
2019-02-14T07:50:51.080Z,38.38
2019-02-14T07:51:48.643Z,37.44
2019-02-14T07:52:45.534Z,36.06
2019-02-14T07:53:42.201Z,34.69
2019-02-14T07:54:38.786Z,33.69
2019-02-14T07:55:35.372Z,33.56
2019-02-14T07:56:32.183Z,34.56
2019-02-14T07:57:29.083Z,36.00
2019-02-14T07:58:25.718Z,37.44
2019-02-14T07:59:22.773Z,38.63
2019-02-14T08:00:19.477Z,39.63
2019-02-14T08:01:16.261Z,40.38
2019-02-14T08:02:12.874Z,40.81
2019-02-14T08:03:09.470Z,40.75
2019-02-14T08:04:06.086Z,40.56
2019-02-14T08:05:02.700Z,40.38
2019-02-14T08:05:59.290Z,40.19
2019-02-14T08:06:56.094Z,40.00
2019-02-14T08:07:52.781Z,39.88
2019-02-14T08:08:49.397Z,39.69
2019-02-14T08:09:46.004Z,39.63
2019-02-14T08:10:42.638Z,39.50
2019-02-14T08:11:39.239Z,39.44
2019-02-14T08:12:35.851Z,39.38
2019-02-14T08:13:32.730Z,39.19
2019-02-14T08:14:29.357Z,38.88
2019-02-14T08:15:26.192Z,38.31
2019-02-14T08:16:22.914Z,37.38
2019-02-14T08:17:19.504Z,36.13
2019-02-14T08:18:16.268Z,34.75
2019-02-14T08:19:13.031Z,33.63
2019-02-14T08:20:09.635Z,33.38
2019-02-14T08:21:06.651Z,34.25
2019-02-14T08:22:03.342Z,35.75
2019-02-14T08:23:00.036Z,37.25
2019-02-14T08:23:56.938Z,38.63
2019-02-14T08:24:53.549Z,39.69
2019-02-14T08:25:50.797Z,40.25
2019-02-14T08:26:47.496Z,40.25
2019-02-14T08:27:44.108Z,40.12
2019-02-14T08:28:40.751Z,40.00
2019-02-14T08:29:37.348Z,39.81
2019-02-14T08:30:34.281Z,39.63
2019-02-14T08:31:30.970Z,39.44
2019-02-14T08:32:27.580Z,39.31
2019-02-14T08:33:24.205Z,39.19
2019-02-14T08:34:20.985Z,39.13
2019-02-14T08:35:17.623Z,38.94
2019-02-14T08:36:14.319Z,38.63
2019-02-14T08:37:10.932Z,38.06
2019-02-14T08:38:07.646Z,37.19
2019-02-14T08:39:04.609Z,35.94
2019-02-14T08:40:01.341Z,34.56
2019-02-14T08:40:57.963Z,33.44
2019-02-14T08:41:54.565Z,33.19
2019-02-14T08:42:51.149Z,34.06
2019-02-14T08:43:47.745Z,35.56
2019-02-14T08:44:44.658Z,37.19
2019-02-14T08:45:41.271Z,38.56
2019-02-14T08:46:37.861Z,39.63
2019-02-14T08:47:34.454Z,39.94
2019-02-14T08:48:31.045Z,40.00
2019-02-14T08:49:27.678Z,39.88
2019-02-14T08:50:24.273Z,39.69
2019-02-14T08:51:21.213Z,39.56
2019-02-14T08:52:17.906Z,39.38
2019-02-14T08:53:15.022Z,39.19
2019-02-14T08:54:11.616Z,39.06
2019-02-14T08:55:09.961Z,38.94
2019-02-14T08:56:06.830Z,38.69
2019-02-14T08:57:03.501Z,38.31
2019-02-14T08:58:00.149Z,37.56
2019-02-14T08:58:56.889Z,36.63
2019-02-14T08:59:53.601Z,35.44
2019-02-14T09:00:50.230Z,34.19
2019-02-14T09:01:46.832Z,33.19
2019-02-14T09:02:43.464Z,33.06
2019-02-14T09:03:40.146Z,34.13
2019-02-14T09:04:36.962Z,35.69
2019-02-14T09:05:33.654Z,37.31
2019-02-14T09:06:30.673Z,38.69
2019-02-14T09:07:27.249Z,39.50
2019-02-14T09:08:23.840Z,39.75
2019-02-14T09:09:20.457Z,39.69
2019-02-14T09:10:17.697Z,39.56
2019-02-14T09:11:14.473Z,39.38
2019-02-14T09:12:11.183Z,39.19
2019-02-14T09:13:16.755Z,39.00
2019-02-14T09:14:06.282Z,38.88
2019-02-14T09:15:02.879Z,38.69
2019-02-14T09:15:59.514Z,38.38
2019-02-14T09:16:56.105Z,37.81
2019-02-14T09:17:52.873Z,37.06
2019-02-14T09:18:49.569Z,36.06
2019-02-14T09:19:46.409Z,34.88
2019-02-14T09:20:43.116Z,33.69
2019-02-14T09:21:39.749Z,32.88
2019-02-14T09:22:36.417Z,32.94
2019-02-14T09:23:33.481Z,34.13
2019-02-14T09:24:30.110Z,35.69
2019-02-14T09:25:26.920Z,37.31
2019-02-14T09:26:23.592Z,38.56
2019-02-14T09:27:20.250Z,39.25
2019-02-14T09:28:17.082Z,39.38
2019-02-14T09:29:14.394Z,39.31
2019-02-14T09:30:11.243Z,39.19
2019-02-14T09:31:07.895Z,39.00
2019-02-14T09:32:04.804Z,38.81
2019-02-14T09:33:01.494Z,38.63
2019-02-14T09:33:58.206Z,38.38
2019-02-14T09:34:55.006Z,38.06
2019-02-14T09:35:51.735Z,37.50
2019-02-14T09:36:48.532Z,36.75
2019-02-14T09:37:45.152Z,35.75
2019-02-14T09:38:41.750Z,34.50
2019-02-14T09:39:40.908Z,33.31
2019-02-14T09:40:36.861Z,32.56
2019-02-14T09:41:33.497Z,32.88
2019-02-14T09:42:30.163Z,34.19
2019-02-14T09:43:29.847Z,35.75
2019-02-14T09:44:25.678Z,37.38
2019-02-14T09:45:22.662Z,38.50
2019-02-14T09:46:19.427Z,39.00
2019-02-14T09:47:16.015Z,39.06
2019-02-14T09:48:12.624Z,39.00
2019-02-14T09:49:09.394Z,38.81
2019-02-14T09:50:06.025Z,38.63
2019-02-14T09:51:02.862Z,38.38
2019-02-14T09:51:59.478Z,38.13
2019-02-14T09:52:56.090Z,37.69
2019-02-14T09:53:52.683Z,37.13
2019-02-14T09:54:49.305Z,36.31
2019-02-14T09:55:46.053Z,35.44
2019-02-14T09:56:42.810Z,34.44
2019-02-14T09:57:39.521Z,33.56
2019-02-14T09:58:36.140Z,32.88
2019-02-14T09:59:33.071Z,32.25
2019-02-14T10:00:29.775Z,31.69
2019-02-14T10:01:26.412Z,31.12
2019-02-14T10:02:23.200Z,30.56
2019-02-14T10:03:19.948Z,30.06
2019-02-14T10:04:16.787Z,29.69
2019-02-14T10:05:13.478Z,29.37
2019-02-14T10:06:10.074Z,29.12
2019-02-14T10:07:06.712Z,28.94
2019-02-14T10:08:12.180Z,28.75
2019-02-14T10:09:04.037Z,28.62
2019-02-14T10:10:00.758Z,28.50
2019-02-14T10:10:57.490Z,28.38
2019-02-14T10:11:54.227Z,28.31
2019-02-14T10:12:50.907Z,28.25
2019-02-14T10:13:47.520Z,28.12
2019-02-14T10:14:44.121Z,28.06
2019-02-14T10:15:40.737Z,28.00
2019-02-14T10:16:37.356Z,27.94
2019-02-14T10:17:34.207Z,27.87
2019-02-14T10:18:30.834Z,27.81
2019-02-14T10:19:28.776Z,27.75
2019-02-14T10:20:25.540Z,27.69
2019-02-14T10:21:22.361Z,27.62
2019-02-14T10:22:19.059Z,27.56
2019-02-14T10:23:15.962Z,27.50
2019-02-14T10:24:12.664Z,27.44
2019-02-14T10:25:12.220Z,27.37
2019-02-14T10:26:08.922Z,27.31
2019-02-14T10:27:06.106Z,27.25
2019-02-14T10:28:02.999Z,27.19
2019-02-14T10:29:00.479Z,27.13
2019-02-14T10:29:57.401Z,27.06
2019-02-14T10:30:54.555Z,27.00
2019-02-14T10:31:51.821Z,26.94
2019-02-14T10:32:48.925Z,26.87
2019-02-14T10:33:45.893Z,26.81
2019-02-14T10:34:42.982Z,26.75
2019-02-14T10:35:40.267Z,26.69
2019-02-14T10:36:37.350Z,26.62
2019-02-14T10:37:34.351Z,26.56
2019-02-14T10:38:31.759Z,26.50
2019-02-14T10:39:28.899Z,26.50
2019-02-14T10:40:26.138Z,26.44
2019-02-14T10:41:23.727Z,26.37
2019-02-14T10:42:21.151Z,26.31
2019-02-14T10:43:18.535Z,26.25
2019-02-14T10:44:15.722Z,26.25
2019-02-14T10:45:12.914Z,26.19
2019-02-14T10:46:10.243Z,26.12
2019-02-14T10:47:07.275Z,26.06
2019-02-14T10:48:04.841Z,26.06
2019-02-14T10:49:02.162Z,26.00
2019-02-14T10:49:59.319Z,25.94
2019-02-14T10:50:56.133Z,25.94
2019-02-14T10:51:53.203Z,25.88
2019-02-14T10:52:50.382Z,25.81
2019-02-14T10:53:47.510Z,25.81
2019-02-14T10:54:44.178Z,25.75
2019-02-14T10:55:41.421Z,25.69
2019-02-14T10:56:38.154Z,25.69
2019-02-14T10:57:35.453Z,25.62
2019-02-14T10:58:32.613Z,25.56
2019-02-14T10:59:29.746Z,25.56
2019-02-14T11:00:26.916Z,25.56
2019-02-14T11:01:23.877Z,25.50
2019-02-14T11:02:21.039Z,25.44
2019-02-14T11:03:18.320Z,25.44
2019-02-14T11:04:15.341Z,25.37
2019-02-14T11:05:12.534Z,25.37
2019-02-14T11:06:09.363Z,25.31
2019-02-14T11:07:06.116Z,25.25
2019-02-14T11:08:02.791Z,25.25
2019-02-14T11:08:59.586Z,25.19
2019-02-14T11:09:56.185Z,25.19
2019-02-14T11:10:52.999Z,25.12
2019-02-14T11:11:50.016Z,25.12
2019-02-14T11:12:47.054Z,25.06
2019-02-14T11:13:44.319Z,25.06
2019-02-14T11:14:41.368Z,25.00
2019-02-14T11:15:38.069Z,25.00
2019-02-14T11:16:35.130Z,25.00
2019-02-14T11:17:32.274Z,24.94
2019-02-14T11:18:29.224Z,24.94
2019-02-14T11:19:26.740Z,24.87
2019-02-14T11:20:23.821Z,24.87
2019-02-14T11:21:20.757Z,24.81
2019-02-14T11:22:17.743Z,24.81
2019-02-14T11:23:14.541Z,24.75
2019-02-14T11:24:11.483Z,24.75
2019-02-14T11:25:08.259Z,24.69
2019-02-14T11:26:04.884Z,24.69
2019-02-14T11:27:01.502Z,24.69
2019-02-14T11:27:58.251Z,24.63
2019-02-14T11:28:55.041Z,24.63
2019-02-14T11:29:51.964Z,24.56
2019-02-14T11:30:48.635Z,24.56
2019-02-14T11:31:45.533Z,24.50
2019-02-14T11:32:42.764Z,24.50
2019-02-14T11:33:39.591Z,24.50
2019-02-14T11:34:36.298Z,24.44
2019-02-14T11:35:32.934Z,24.44
2019-02-14T11:36:29.915Z,24.44
2019-02-14T11:37:26.820Z,24.37
2019-02-14T11:38:23.560Z,24.37
2019-02-14T11:39:20.311Z,24.31
2019-02-14T11:40:17.064Z,24.31
2019-02-14T11:41:13.968Z,24.31
2019-02-14T11:42:10.867Z,24.25
2019-02-14T11:43:07.849Z,24.25
2019-02-14T11:44:04.917Z,24.25
2019-02-14T11:45:01.789Z,24.19
2019-02-14T11:45:58.827Z,24.19
2019-02-14T11:46:55.572Z,24.12
2019-02-14T11:47:52.236Z,24.12
2019-02-14T11:48:48.947Z,24.12
2019-02-14T11:49:45.755Z,24.06
2019-02-14T11:50:42.895Z,24.06
2019-02-14T11:51:39.902Z,24.06
2019-02-14T11:52:37.307Z,24.00
2019-02-14T11:53:34.246Z,24.00
2019-02-14T11:54:31.010Z,24.00
2019-02-14T11:55:50.167Z,23.94
2019-02-14T11:56:56.742Z,24.06
2019-02-14T11:57:56.265Z,24.25
2019-02-14T11:59:04.986Z,24.63
2019-02-14T12:00:11.842Z,25.31
2019-02-14T12:01:10.997Z,26.87
2019-02-14T12:02:07.818Z,28.94
2019-02-14T12:03:06.395Z,31.06
2019-02-14T12:04:15.650Z,33.00
2019-02-14T12:05:16.496Z,34.63
2019-02-14T12:06:21.731Z,35.75
2019-02-14T12:07:31.244Z,36.63
2019-02-14T12:08:31.144Z,37.31
2019-02-14T12:09:45.749Z,37.81
2019-02-14T12:12:06.437Z,38.56
2019-02-14T12:13:16.827Z,38.31
2019-02-14T12:14:19.236Z,37.88